Time;durP1;ratioP1;P1;durP2;ratioP2;P2;SDS_P1;SDS_P2;PMS_P1;PMS_P2;Temp;Humidity;BMP_temperature;BMP_pressure;BME280_temperature;BME280_humidity;BME280_pressure;Samples;Min_cycle;Max_cycle;Signal;HPM_P1;HPM_P2
2023/01/19 00:01:51;;;;;;;6.30;4.90;;;;;;;;;;5073487;28;20376;-89
2023/01/19 00:04:17;;;;;;;4.88;4.35;;;;;;;;;;5073439;28;20380;-89
2023/01/19 00:06:43;;;;;;;4.88;4.47;;;;;;;;;;5064710;28;20887;-88
2023/01/19 00:09:09;;;;;;;4.95;4.50;;;;;;;;;;5070154;28;20368;-88
2023/01/19 00:11:35;;;;;;;5.45;4.90;;;;;;;;;;5081725;28;20398;-89
2023/01/19 00:14:01;;;;;;;5.50;5.00;;;;;;;;;;5078958;28;20380;-88
2023/01/19 00:16:27;;;;;;;5.35;4.80;;;;;;;;;;5087313;28;20387;-88
2023/01/19 00:18:54;;;;;;;6.00;5.40;;;;;;;;;;5087168;28;20385;-89
2023/01/19 00:21:21;;;;;;;7.82;7.07;;;;;;;;;;5086677;28;20409;-89
2023/01/19 00:23:47;;;;;;;7.70;6.90;;;;;;;;;;5073085;28;20372;-88
2023/01/19 00:26:17;;;;;;;6.88;6.18;;;;;;;;;;5072815;28;20457;-89
2023/01/19 00:28:43;;;;;;;6.78;6.15;;;;;;;;;;5072738;28;20395;-89
2023/01/19 00:31:09;;;;;;;7.50;6.80;;;;;;;;;;5072763;28;20372;-88
2023/01/19 00:33:36;;;;;;;7.13;6.43;;;;;;;;;;5085005;28;20410;-89
2023/01/19 00:36:02;;;;;;;7.07;6.35;;;;;;;;;;5072792;28;20376;-87
2023/01/19 00:38:28;;;;;;;7.47;6.78;;;;;;;;;;5072687;28;20375;-90
2023/01/19 00:40:54;;;;;;;7.82;6.50;;;;;;;;;;5072673;28;20891;-89
2023/01/19 00:43:20;;;;;;;32.42;16.20;;;;;;;;;;5072554;28;20376;-88
2023/01/19 00:45:46;;;;;;;106.47;41.25;;;;;;;;;;5072436;28;20387;-88
2023/01/19 00:48:12;;;;;;;21.17;11.75;;;;;;;;;;5072524;28;20376;-90
2023/01/19 00:50:38;;;;;;;10.40;7.90;;;;;;;;;;5076087;28;20533;-88
2023/01/19 00:53:04;;;;;;;6.78;6.05;;;;;;;;;;5082900;28;20384;-89
2023/01/19 00:55:32;;;;;;;52.20;21.57;;;;;;;;;;5072278;28;20404;-88
2023/01/19 00:57:58;;;;;;;33.92;15.57;;;;;;;;;;5074713;28;20373;-87
2023/01/19 01:00:24;;;;;;;6.75;5.55;;;;;;;;;;5072265;28;20888;-87
2023/01/19 01:02:52;;;;;;;10.47;7.70;;;;;;;;;;5072278;28;20869;-87
2023/01/19 01:05:18;;;;;;;52.55;20.23;;;;;;;;;;5065167;28;20867;-87
2023/01/19 01:07:44;;;;;;;7.05;6.28;;;;;;;;;;5066044;28;20475;-87
2023/01/19 01:10:10;;;;;;;7.47;6.65;;;;;;;;;;5059078;28;20493;-87
2023/01/19 01:12:37;;;;;;;19.55;10.30;;;;;;;;;;5054282;28;20460;-88
2023/01/19 01:15:04;;;;;;;12.75;8.63;;;;;;;;;;5059547;28;20389;-89
2023/01/19 01:17:30;;;;;;;18.52;9.77;;;;;;;;;;5061753;28;20428;-89
2023/01/19 01:19:56;;;;;;;7.85;7.03;;;;;;;;;;5061075;28;20405;-87
2023/01/19 01:22:22;;;;;;;8.18;7.15;;;;;;;;;;5059643;28;20469;-87
2023/01/19 01:24:48;;;;;;;18.37;14.33;;;;;;;;;;5053273;28;20389;-89
2023/01/19 01:27:14;;;;;;;7.72;7.00;;;;;;;;;;5051650;28;20413;-88
2023/01/19 01:29:45;;;;;;;6.90;6.30;;;;;;;;;;5063937;28;20718;-87
2023/01/19 01:32:11;;;;;;;9.23;8.27;;;;;;;;;;5052118;28;20396;-87
2023/01/19 01:34:37;;;;;;;8.32;7.53;;;;;;;;;;5061281;28;20373;-86
2023/01/19 01:37:03;;;;;;;9.00;8.20;;;;;;;;;;5055147;28;20500;-86
2023/01/19 01:39:29;;;;;;;10.15;9.07;;;;;;;;;;5052322;28;20378;-86
2023/01/19 01:41:55;;;;;;;10.18;9.07;;;;;;;;;;5053121;28;20382;-90
2023/01/19 01:44:48;;;;;;;9.95;9.05;;;;;;;;;;5033693;28;20382;-88
2023/01/19 01:47:17;;;;;;;10.98;9.98;;;;;;;;;;5051610;28;20406;-88
2023/01/19 01:49:43;;;;;;;11.27;10.15;;;;;;;;;;5053254;28;20380;-88
2023/01/19 01:52:09;;;;;;;10.70;9.70;;;;;;;;;;5055427;28;20389;-86
2023/01/19 01:54:35;;;;;;;10.52;9.48;;;;;;;;;;5058624;28;20376;-88
2023/01/19 01:57:04;;;;;;;11.00;9.52;;;;;;;;;;5058433;28;20948;-88
2023/01/19 01:59:37;;;;;;;10.07;9.18;;;;;;;;;;5065058;28;20426;-88
2023/01/19 02:05:02;;;;;;;10.82;9.90;;;;;;;;;;5063189;28;20555;-90
2023/01/19 02:13:19;;;;;;;11.20;10.10;;;;;;;;;;5065706;28;20377;-89
2023/01/19 02:15:45;;;;;;;12.30;11.07;;;;;;;;;;5070271;28;20795;-88
2023/01/19 02:18:14;;;;;;;11.88;10.77;;;;;;;;;;5061978;28;20434;-91
2023/01/19 02:20:42;;;;;;;12.48;11.25;;;;;;;;;;5068947;28;20370;-90
2023/01/19 02:23:14;;;;;;;12.97;11.67;;;;;;;;;;5065684;28;20386;-89
2023/01/19 02:25:40;;;;;;;13.73;12.32;;;;;;;;;;5070456;28;20522;-87
2023/01/19 02:28:09;;;;;;;15.20;13.55;;;;;;;;;;5055265;28;20413;-89
2023/01/19 02:30:37;;;;;;;14.00;12.70;;;;;;;;;;5054821;28;20388;-91
2023/01/19 02:33:03;;;;;;;14.73;13.23;;;;;;;;;;5054668;28;20820;-89
2023/01/19 02:35:30;;;;;;;14.77;13.07;;;;;;;;;;5059926;28;20386;-89
2023/01/19 02:37:56;;;;;;;13.60;12.40;;;;;;;;;;5058906;28;21000;-90
2023/01/19 02:40:23;;;;;;;13.37;12.07;;;;;;;;;;5058296;28;20384;-87
2023/01/19 02:42:50;;;;;;;13.20;11.85;;;;;;;;;;5073529;28;20455;-88
2023/01/19 02:45:21;;;;;;;11.73;10.73;;;;;;;;;;5076434;28;20390;-88
2023/01/19 02:47:49;;;;;;;11.80;10.75;;;;;;;;;;5086568;28;20403;-87
2023/01/19 02:50:27;;;;;;;11.43;10.40;;;;;;;;;;5074668;28;20383;-89
2023/01/19 02:52:57;;;;;;;11.98;10.98;;;;;;;;;;5069409;28;20392;-87
2023/01/19 02:55:26;;;;;;;11.57;10.57;;;;;;;;;;5058594;28;20433;-89
2023/01/19 02:58:00;;;;;;;11.88;10.77;;;;;;;;;;5073199;28;20376;-87
2023/01/19 03:00:45;;;;;;;11.48;10.43;;;;;;;;;;5073730;28;20391;-90
2023/01/19 03:03:10;;;;;;;11.40;10.35;;;;;;;;;;5074805;28;20768;-88
2023/01/19 03:05:36;;;;;;;11.38;10.38;;;;;;;;;;5065743;28;20382;-88
2023/01/19 03:08:21;;;;;;;10.90;9.98;;;;;;;;;;5076829;28;20901;-88
2023/01/19 03:10:47;;;;;;;11.60;10.50;;;;;;;;;;5073716;28;20400;-88
2023/01/19 03:13:13;;;;;;;11.60;10.50;;;;;;;;;;5074332;28;20394;-88
2023/01/19 03:15:39;;;;;;;11.32;10.32;;;;;;;;;;5074420;28;20372;-88
2023/01/19 03:18:08;;;;;;;11.13;10.13;;;;;;;;;;5086650;28;20472;-89
2023/01/19 03:20:34;;;;;;;11.00;10.00;;;;;;;;;;5083646;28;20376;-90
2023/01/19 03:23:01;;;;;;;10.82;9.90;;;;;;;;;;5084104;28;20454;-88
2023/01/19 03:25:28;;;;;;;9.52;8.63;;;;;;;;;;5084282;28;20381;-88
2023/01/19 03:27:57;;;;;;;8.85;8.10;;;;;;;;;;5077443;28;20447;-87
2023/01/19 03:30:27;;;;;;;8.02;7.30;;;;;;;;;;5073918;28;20884;-88
2023/01/19 03:32:59;;;;;;;8.15;7.35;;;;;;;;;;5074062;28;20511;-88
2023/01/19 03:35:28;;;;;;;8.13;7.32;;;;;;;;;;5073553;28;20383;-89
2023/01/19 03:37:57;;;;;;;8.52;7.72;;;;;;;;;;5073940;28;20440;-88
2023/01/19 03:40:24;;;;;;;7.95;7.35;;;;;;;;;;5073803;28;20407;-87
2023/01/19 03:42:50;;;;;;;8.48;7.68;;;;;;;;;;5071999;28;20376;-89
2023/01/19 03:45:16;;;;;;;7.97;7.28;;;;;;;;;;5072418;28;20379;-88
2023/01/19 03:47:43;;;;;;;8.18;7.47;;;;;;;;;;5073720;28;20502;-90
2023/01/19 03:50:13;;;;;;;8.13;7.43;;;;;;;;;;5073643;28;20463;-90
2023/01/19 03:52:39;;;;;;;8.10;7.40;;;;;;;;;;5055723;28;20380;-89
2023/01/19 03:55:05;;;;;;;8.90;8.00;;;;;;;;;;5073567;28;20385;-90
2023/01/19 03:57:31;;;;;;;11.25;10.13;;;;;;;;;;5087678;28;20430;-90
2023/01/19 03:59:57;;;;;;;9.90;8.90;;;;;;;;;;5065677;28;20381;-90
2023/01/19 04:02:24;;;;;;;7.90;7.20;;;;;;;;;;5069889;28;20384;-90
2023/01/19 04:04:50;;;;;;;7.88;7.20;;;;;;;;;;5070250;28;20394;-89
2023/01/19 04:07:16;;;;;;;8.07;7.37;;;;;;;;;;5068142;28;20465;-88
2023/01/19 04:09:42;;;;;;;7.55;6.85;;;;;;;;;;5073566;28;20391;-89
2023/01/19 04:12:08;;;;;;;7.93;7.15;;;;;;;;;;5073022;28;20896;-90
2023/01/19 04:14:34;;;;;;;8.05;7.35;;;;;;;;;;5073218;28;20384;-90
2023/01/19 04:17:00;;;;;;;7.93;7.22;;;;;;;;;;5073513;28;20403;-89
2023/01/19 04:19:26;;;;;;;7.78;7.07;;;;;;;;;;5073097;28;20402;-89
2023/01/19 04:21:52;;;;;;;7.90;7.20;;;;;;;;;;5072959;28;20384;-90
2023/01/19 04:24:18;;;;;;;7.50;6.80;;;;;;;;;;5073089;28;20382;-89
2023/01/19 04:26:44;;;;;;;8.13;7.32;;;;;;;;;;5080449;28;21040;-88
2023/01/19 04:29:10;;;;;;;7.93;7.22;;;;;;;;;;5078333;28;20471;-90
2023/01/19 04:31:36;;;;;;;7.43;6.78;;;;;;;;;;5082301;28;20421;-90
2023/01/19 04:34:03;;;;;;;7.32;6.63;;;;;;;;;;5086866;28;21939;-91
2023/01/19 04:36:29;;;;;;;7.30;6.67;;;;;;;;;;5079798;28;20395;-90
2023/01/19 04:38:55;;;;;;;7.93;7.20;;;;;;;;;;5072711;28;20749;-90
2023/01/19 04:41:21;;;;;;;7.33;6.63;;;;;;;;;;5072703;28;20387;-88
2023/01/19 04:43:47;;;;;;;7.60;6.90;;;;;;;;;;5072535;28;20854;-89
2023/01/19 04:46:13;;;;;;;8.02;7.32;;;;;;;;;;5072688;28;20438;-89
2023/01/19 04:48:39;;;;;;;7.80;7.10;;;;;;;;;;5072596;28;20383;-89
2023/01/19 04:51:05;;;;;;;8.00;7.30;;;;;;;;;;5072579;28;20864;-91
2023/01/19 04:53:31;;;;;;;7.97;7.28;;;;;;;;;;5072571;28;20380;-90
2023/01/19 04:55:59;;;;;;;7.35;6.75;;;;;;;;;;5072607;28;20383;-91
2023/01/19 04:58:25;;;;;;;7.85;7.15;;;;;;;;;;5074854;28;20852;-89
2023/01/19 05:00:51;;;;;;;8.02;7.32;;;;;;;;;;5072377;28;20405;-89
2023/01/19 05:03:18;;;;;;;8.15;7.35;;;;;;;;;;5072396;28;20733;-89
2023/01/19 05:05:44;;;;;;;8.33;7.53;;;;;;;;;;5063934;28;20727;-88
2023/01/19 05:08:10;;;;;;;8.10;7.40;;;;;;;;;;5072145;28;20906;-90
2023/01/19 05:10:36;;;;;;;8.18;7.45;;;;;;;;;;5066754;28;20398;-89
2023/01/19 05:13:03;;;;;;;8.77;7.97;;;;;;;;;;5070109;28;20410;-91
2023/01/19 05:15:29;;;;;;;8.40;7.60;;;;;;;;;;5056471;28;20378;-91
2023/01/19 05:17:56;;;;;;;8.00;7.30;;;;;;;;;;5075078;28;20414;-90
2023/01/19 05:20:22;;;;;;;8.82;7.97;;;;;;;;;;5070197;28;20918;-91
2023/01/19 05:22:49;;;;;;;8.70;7.82;;;;;;;;;;5066490;28;20463;-90
2023/01/19 05:25:15;;;;;;;8.80;8.00;;;;;;;;;;5070068;28;20379;-91
2023/01/19 05:27:41;;;;;;;8.30;7.60;;;;;;;;;;5070239;28;20404;-90
2023/01/19 05:30:08;;;;;;;8.32;7.60;;;;;;;;;;5050706;28;20408;-91
2023/01/19 05:32:34;;;;;;;8.65;7.85;;;;;;;;;;5062603;28;20385;-89
2023/01/19 05:35:00;;;;;;;8.90;8.00;;;;;;;;;;5062007;28;20556;-90
2023/01/19 05:37:26;;;;;;;8.50;7.70;;;;;;;;;;5080289;28;20382;-89
2023/01/19 05:39:52;;;;;;;8.32;7.55;;;;;;;;;;5072980;28;20390;-89
2023/01/19 05:42:27;;;;;;;8.65;7.95;;;;;;;;;;5062971;28;20405;-88
2023/01/19 05:44:58;;;;;;;8.55;7.70;;;;;;;;;;5054838;28;20472;-88
2023/01/19 05:47:24;;;;;;;8.40;7.70;;;;;;;;;;5069069;28;20900;-88
2023/01/19 05:49:50;;;;;;;8.32;7.53;;;;;;;;;;5071540;28;20391;-87
2023/01/19 05:52:16;;;;;;;9.00;8.20;;;;;;;;;;5067640;28;20387;-87
2023/01/19 05:54:42;;;;;;;8.75;7.88;;;;;;;;;;5060670;28;20375;-87
2023/01/19 05:57:08;;;;;;;8.52;7.63;;;;;;;;;;5068266;28;20429;-88
2023/01/19 05:59:34;;;;;;;8.50;7.80;;;;;;;;;;5071376;28;20443;-89
2023/01/19 06:02:00;;;;;;;8.70;8.00;;;;;;;;;;5084916;28;20782;-88
2023/01/19 06:04:26;;;;;;;8.90;8.10;;;;;;;;;;5072485;28;20404;-89
2023/01/19 06:06:52;;;;;;;8.68;7.93;;;;;;;;;;5075043;28;20399;-88
2023/01/19 06:09:18;;;;;;;7.80;7.10;;;;;;;;;;5085679;28;20409;-89
2023/01/19 06:11:44;;;;;;;8.55;7.85;;;;;;;;;;5070821;28;20398;-88
2023/01/19 06:14:11;;;;;;;9.18;8.27;;;;;;;;;;5066331;28;20375;-88
2023/01/19 06:16:37;;;;;;;9.68;8.77;;;;;;;;;;5071372;28;20380;-88
2023/01/19 06:19:03;;;;;;;25.55;14.40;;;;;;;;;;5071301;28;20464;-88
2023/01/19 06:21:29;;;;;;;17.05;12.20;;;;;;;;;;5071341;28;20429;-90
2023/01/19 06:23:55;;;;;;;10.95;9.82;;;;;;;;;;5071486;28;20391;-88
2023/01/19 06:26:21;;;;;;;10.25;9.25;;;;;;;;;;5071418;28;20399;-90
2023/01/19 06:28:47;;;;;;;9.82;8.90;;;;;;;;;;5085518;28;20719;-88
2023/01/19 06:31:13;;;;;;;10.00;9.15;;;;;;;;;;5071413;28;20780;-89
2023/01/19 06:33:39;;;;;;;9.00;8.20;;;;;;;;;;5071136;28;20383;-89
2023/01/19 06:36:05;;;;;;;10.05;9.05;;;;;;;;;;5063201;28;20852;-89
2023/01/19 06:38:31;;;;;;;20.73;14.25;;;;;;;;;;5077164;28;20391;-90
2023/01/19 06:40:58;;;;;;;21.08;14.07;;;;;;;;;;5083263;28;20906;-90
2023/01/19 06:43:24;;;;;;;9.95;8.95;;;;;;;;;;5082113;28;20466;-90
2023/01/19 06:45:50;;;;;;;8.85;7.95;;;;;;;;;;5057318;28;20376;-88
2023/01/19 06:48:16;;;;;;;8.75;7.95;;;;;;;;;;5071391;28;20408;-88
2023/01/19 06:50:44;;;;;;;8.15;7.45;;;;;;;;;;5078030;28;20412;-89
2023/01/19 06:53:11;;;;;;;8.93;8.13;;;;;;;;;;5072884;28;20372;-90
2023/01/19 06:55:38;;;;;;;8.73;7.90;;;;;;;;;;5076493;28;20429;-89
2023/01/19 06:58:04;;;;;;;8.35;7.60;;;;;;;;;;5084520;28;20378;-91
2023/01/19 07:00:30;;;;;;;8.02;7.32;;;;;;;;;;5078391;28;20419;-91
2023/01/19 07:02:56;;;;;;;9.07;8.18;;;;;;;;;;5075334;28;20380;-91
2023/01/19 07:05:23;;;;;;;8.20;7.40;;;;;;;;;;5071424;28;20393;-90
2023/01/19 07:07:52;;;;;;;8.00;7.30;;;;;;;;;;5081088;28;20405;-93
2023/01/19 07:10:18;;;;;;;8.77;7.97;;;;;;;;;;5077071;28;20400;-91
2023/01/19 07:12:46;;;;;;;7.70;7.00;;;;;;;;;;5074471;28;20378;-91
2023/01/19 07:15:12;;;;;;;8.13;7.43;;;;;;;;;;5084845;28;20370;-88
2023/01/19 07:17:38;;;;;;;8.20;7.32;;;;;;;;;;5078601;28;20740;-88
2023/01/19 07:20:04;;;;;;;8.30;7.60;;;;;;;;;;5074530;28;20927;-89
2023/01/19 07:22:30;;;;;;;8.20;7.40;;;;;;;;;;5074269;28;20399;-89
2023/01/19 07:24:57;;;;;;;8.10;7.38;;;;;;;;;;5074645;28;20437;-91
2023/01/19 07:27:26;;;;;;;8.60;7.30;;;;;;;;;;5074435;28;20465;-90
2023/01/19 07:29:52;;;;;;;8.18;7.47;;;;;;;;;;5075251;28;20432;-91
2023/01/19 07:32:18;;;;;;;8.23;7.43;;;;;;;;;;5069787;28;20768;-90
2023/01/19 07:34:44;;;;;;;8.95;8.15;;;;;;;;;;5074740;28;20395;-90
2023/01/19 07:37:10;;;;;;;9.40;8.50;;;;;;;;;;5073212;28;20442;-89
2023/01/19 07:39:36;;;;;;;10.27;9.23;;;;;;;;;;5072854;28;20387;-90
2023/01/19 07:42:02;;;;;;;9.82;8.93;;;;;;;;;;5088928;28;20448;-90
2023/01/19 07:44:28;;;;;;;9.77;8.88;;;;;;;;;;5083439;28;20374;-91
2023/01/19 07:46:54;;;;;;;9.02;8.13;;;;;;;;;;5078369;28;20404;-92
2023/01/19 07:49:20;;;;;;;9.15;8.30;;;;;;;;;;5070434;28;20730;-92
2023/01/19 07:51:49;;;;;;;9.52;8.73;;;;;;;;;;5617255;22;20427;-91
2023/01/19 07:54:15;;;;;;;9.10;8.20;;;;;;;;;;5083623;28;20874;-89
2023/01/19 07:56:44;;;;;;;9.20;8.30;;;;;;;;;;5092871;28;20872;-89
2023/01/19 07:59:12;;;;;;;11.10;9.98;;;;;;;;;;5093922;28;20863;-93
2023/01/19 08:01:47;;;;;;;9.80;8.90;;;;;;;;;;5094335;28;20385;-93
2023/01/19 08:04:13;;;;;;;11.38;10.38;;;;;;;;;;5083586;28;20470;-91
2023/01/19 08:06:50;;;;;;;10.15;9.25;;;;;;;;;;5084597;28;20489;-91
2023/01/19 08:09:17;;;;;;;9.85;8.95;;;;;;;;;;5080681;28;20375;-91
2023/01/19 08:11:43;;;;;;;33.28;20.02;;;;;;;;;;5084971;28;20852;-90
2023/01/19 08:14:09;;;;;;;13.63;10.97;;;;;;;;;;5089140;28;20378;-90
2023/01/19 08:16:35;;;;;;;14.35;11.73;;;;;;;;;;5086845;28;20386;-90
2023/01/19 08:19:05;;;;;;;9.45;8.57;;;;;;;;;;5081079;28;20382;-92
2023/01/19 08:21:32;;;;;;;10.07;9.18;;;;;;;;;;5091950;28;20386;-91
2023/01/19 08:23:58;;;;;;;10.45;9.40;;;;;;;;;;5074006;28;20447;-89
2023/01/19 08:26:28;;;;;;;13.52;11.18;;;;;;;;;;5068597;28;20433;-90
2023/01/19 08:28:55;;;;;;;12.18;9.18;;;;;;;;;;5069540;28;20388;-90
2023/01/19 08:31:21;;;;;;;9.80;8.80;;;;;;;;;;5067483;28;20712;-92
2023/01/19 08:34:05;;;;;;;11.25;10.15;;;;;;;;;;5090199;28;20382;-92
2023/01/19 08:36:37;;;;;;;13.47;12.00;;;;;;;;;;5074775;28;20446;-92
2023/01/19 08:39:03;;;;;;;12.40;11.20;;;;;;;;;;5066814;28;20425;-92
2023/01/19 08:41:29;;;;;;;10.57;9.57;;;;;;;;;;5083137;28;20851;-90
2023/01/19 08:43:55;;;;;;;10.77;9.85;;;;;;;;;;5084070;28;20390;-92
2023/01/19 08:46:21;;;;;;;12.27;9.77;;;;;;;;;;5081482;28;20829;-91
2023/01/19 08:48:47;;;;;;;13.07;11.88;;;;;;;;;;5072518;28;20370;-91
2023/01/19 08:51:16;;;;;;;11.70;10.60;;;;;;;;;;5084674;28;20411;-90
2023/01/19 08:53:45;;;;;;;11.40;10.40;;;;;;;;;;5079553;28;20380;-91
2023/01/19 08:56:12;;;;;;;11.45;10.32;;;;;;;;;;5085937;28;20801;-91
2023/01/19 08:58:42;;;;;;;10.88;9.90;;;;;;;;;;5075898;28;20405;-90
2023/01/19 09:01:09;;;;;;;11.77;10.57;;;;;;;;;;5084928;28;20436;-91
2023/01/19 09:03:38;;;;;;;12.40;11.30;;;;;;;;;;5085905;28;20376;-90
2023/01/19 09:06:07;;;;;;;12.33;11.20;;;;;;;;;;5080718;28;20849;-91
2023/01/19 09:08:33;;;;;;;12.53;11.33;;;;;;;;;;5074907;28;20562;-89
2023/01/19 09:11:04;;;;;;;14.77;11.40;;;;;;;;;;5081915;28;20369;-90
2023/01/19 09:13:30;;;;;;;15.18;12.18;;;;;;;;;;5087484;28;20402;-91
2023/01/19 09:15:56;;;;;;;12.73;11.55;;;;;;;;;;5090828;28;20893;-89
2023/01/19 09:18:22;;;;;;;12.90;10.98;;;;;;;;;;5075653;28;20399;-89
2023/01/19 09:21:10;;;;;;;12.52;11.23;;;;;;;;;;5075001;28;20385;-91
2023/01/19 09:23:39;;;;;;;12.77;11.57;;;;;;;;;;5078461;28;20408;-91
2023/01/19 09:26:26;;;;;;;13.33;11.43;;;;;;;;;;5070897;28;20483;-91
2023/01/19 09:28:51;;;;;;;13.50;11.75;;;;;;;;;;5066478;28;20360;-90
2023/01/19 09:31:17;;;;;;;14.75;12.00;;;;;;;;;;5058522;28;20775;-90
2023/01/19 09:33:43;;;;;;;13.07;11.88;;;;;;;;;;5070221;28;20778;-91
2023/01/19 09:36:12;;;;;;;15.45;12.63;;;;;;;;;;5066791;28;20378;-91
2023/01/19 09:39:18;;;;;;;;;;;;;;;;;;;;;
2023/01/19 09:42:05;;;;;;;13.60;12.25;;;;;;;;;;4992225;28;20382;-93
2023/01/19 09:44:33;;;;;;;14.25;12.25;;;;;;;;;;5004515;28;20988;-90
2023/01/19 09:47:01;;;;;;;14.27;12.88;;;;;;;;;;5073914;28;20494;-92
2023/01/19 09:49:27;;;;;;;14.32;12.95;;;;;;;;;;5084811;28;20371;-90
2023/01/19 09:51:53;;;;;;;15.45;13.85;;;;;;;;;;5086302;28;20401;-89
2023/01/19 09:54:21;;;;;;;15.80;14.20;;;;;;;;;;5082123;28;20370;-86
2023/01/19 09:56:48;;;;;;;15.90;14.20;;;;;;;;;;5091843;28;20393;-87
2023/01/19 09:59:20;;;;;;;16.27;14.65;;;;;;;;;;5091381;28;20370;-87
2023/01/19 10:01:55;;;;;;;16.00;14.15;;;;;;;;;;5090463;28;20382;-86
2023/01/19 10:04:36;;;;;;;15.25;13.68;;;;;;;;;;5086235;28;20444;-86
2023/01/19 10:07:21;;;;;;;17.55;13.63;;;;;;;;;;5076949;28;20754;-87
2023/01/19 10:09:52;;;;;;;14.48;12.88;;;;;;;;;;5091692;28;20427;-87
2023/01/19 10:12:28;;;;;;;13.52;12.32;;;;;;;;;;5091816;28;20381;-88
2023/01/19 10:15:03;;;;;;;14.15;12.68;;;;;;;;;;5091608;28;20465;-87
2023/01/19 10:17:48;;;;;;;13.73;12.30;;;;;;;;;;5091694;28;20457;-87
2023/01/19 10:20:22;;;;;;;14.35;12.15;;;;;;;;;;5091449;28;20413;-86
2023/01/19 10:22:48;;;;;;;13.73;12.27;;;;;;;;;;5091609;28;20370;-87
2023/01/19 10:25:18;;;;;;;14.70;12.40;;;;;;;;;;5091549;28;20802;-86
2023/01/19 10:27:45;;;;;;;13.32;11.93;;;;;;;;;;5093137;28;20393;-85
2023/01/19 10:30:16;;;;;;;12.50;11.20;;;;;;;;;;5095335;28;20477;-87
2023/01/19 10:32:43;;;;;;;12.38;11.07;;;;;;;;;;5095587;28;20373;-86
2023/01/19 10:35:20;;;;;;;11.98;10.77;;;;;;;;;;5094955;28;20392;-86
2023/01/19 10:37:46;;;;;;;14.13;10.05;;;;;;;;;;5085675;28;20455;-85
2023/01/19 10:40:12;;;;;;;14.48;10.07;;;;;;;;;;5090887;28;20378;-85
2023/01/19 10:42:39;;;;;;;10.95;9.77;;;;;;;;;;5095551;28;20374;-86
2023/01/19 10:45:25;;;;;;;10.25;9.35;;;;;;;;;;5091701;28;20385;-86
2023/01/19 10:47:52;;;;;;;11.65;9.68;;;;;;;;;;5072448;28;20402;-86
2023/01/19 10:50:23;;;;;;;11.63;8.95;;;;;;;;;;5100627;28;20386;-85
2023/01/19 10:52:50;;;;;;;10.33;9.40;;;;;;;;;;5100982;28;20489;-85
2023/01/19 10:55:24;;;;;;;10.20;9.30;;;;;;;;;;5093832;28;20378;-85
2023/01/19 10:57:52;;;;;;;10.25;9.25;;;;;;;;;;5095047;28;20380;-86
2023/01/19 11:00:30;;;;;;;10.60;9.60;;;;;;;;;;5094809;28;20377;-85
2023/01/19 11:02:56;;;;;;;10.00;8.55;;;;;;;;;;5088009;28;20375;-85
2023/01/19 11:05:22;;;;;;;9.60;8.63;;;;;;;;;;5082953;28;20384;-85
2023/01/19 11:07:48;;;;;;;9.90;8.50;;;;;;;;;;5089090;28;20422;-85
2023/01/19 11:10:19;;;;;;;9.30;8.38;;;;;;;;;;5085461;28;20853;-85
2023/01/19 11:12:45;;;;;;;10.40;8.95;;;;;;;;;;5094735;28;20425;-84
2023/01/19 11:15:13;;;;;;;9.55;8.65;;;;;;;;;;5094606;28;20370;-86
2023/01/19 11:17:41;;;;;;;10.77;9.70;;;;;;;;;;5094604;28;20385;-85
2023/01/19 11:20:17;;;;;;;10.40;9.43;;;;;;;;;;5094449;28;20394;-85
2023/01/19 11:22:43;;;;;;;10.25;9.27;;;;;;;;;;5094869;28;20770;-85
2023/01/19 11:25:20;;;;;;;9.57;8.63;;;;;;;;;;5094451;28;20384;-85
2023/01/19 11:27:50;;;;;;;10.52;8.80;;;;;;;;;;5094422;28;20405;-85
2023/01/19 11:30:18;;;;;;;9.35;8.45;;;;;;;;;;5094081;28;20398;-85
2023/01/19 11:32:45;;;;;;;8.98;8.13;;;;;;;;;;5094345;28;20405;-84
2023/01/19 11:35:30;;;;;;;8.95;8.15;;;;;;;;;;5093772;28;20374;-85
2023/01/19 11:38:11;;;;;;;9.35;8.45;;;;;;;;;;5079091;28;20366;-85
2023/01/19 11:40:37;;;;;;;9.70;8.68;;;;;;;;;;5074177;28;20385;-84
2023/01/19 11:43:04;;;;;;;9.37;8.43;;;;;;;;;;5074046;28;20384;-84
2023/01/19 11:45:32;;;;;;;10.05;8.60;;;;;;;;;;5076974;28;20428;-84
2023/01/19 11:48:01;;;;;;;11.23;8.23;;;;;;;;;;5094206;28;20777;-84
2023/01/19 11:50:38;;;;;;;14.90;8.13;;;;;;;;;;5093880;28;20458;-85
2023/01/19 11:53:06;;;;;;;9.88;8.75;;;;;;;;;;5093820;28;20940;-84
2023/01/19 11:55:47;;;;;;;9.57;8.60;;;;;;;;;;5091976;28;20473;-84
2023/01/19 11:58:15;;;;;;;8.40;7.60;;;;;;;;;;5083666;28;21187;-85
2023/01/19 12:01:00;;;;;;;8.35;7.50;;;;;;;;;;5093701;28;20859;-84
2023/01/19 12:03:34;;;;;;;10.98;7.95;;;;;;;;;;5091272;28;20402;-85
2023/01/19 12:06:14;;;;;;;9.40;8.40;;;;;;;;;;5082921;28;20386;-84
2023/01/19 12:08:47;;;;;;;10.80;8.50;;;;;;;;;;5093676;28;20907;-84
2023/01/19 12:11:18;;;;;;;8.80;8.00;;;;;;;;;;5093531;28;20375;-84
2023/01/19 12:13:45;;;;;;;9.13;8.30;;;;;;;;;;5093414;28;20456;-84
2023/01/19 12:16:17;;;;;;;8.15;7.45;;;;;;;;;;5092205;28;20844;-85
2023/01/19 12:18:59;;;;;;;8.70;7.80;;;;;;;;;;5089451;28;20374;-84
2023/01/19 12:21:25;;;;;;;8.73;7.90;;;;;;;;;;5093306;28;20400;-84
2023/01/19 12:24:03;;;;;;;8.70;7.60;;;;;;;;;;5093430;28;20460;-84
2023/01/19 12:26:36;;;;;;;8.48;6.30;;;;;;;;;;5093140;28;20485;-84
2023/01/19 12:29:10;;;;;;;7.55;6.85;;;;;;;;;;5093437;28;20404;-84
2023/01/19 12:31:37;;;;;;;7.90;6.95;;;;;;;;;;5093183;28;20389;-84
2023/01/19 12:34:35;;;;;;;7.47;6.78;;;;;;;;;;5092712;28;20370;-84
2023/01/19 12:37:02;;;;;;;8.75;7.25;;;;;;;;;;5069999;28;20397;-85
2023/01/19 12:39:29;;;;;;;7.57;6.72;;;;;;;;;;5093122;28;20735;-84
2023/01/19 12:42:15;;;;;;;7.10;6.40;;;;;;;;;;5093031;28;20382;-84
2023/01/19 12:44:43;;;;;;;7.13;6.43;;;;;;;;;;5092856;28;20916;-83
2023/01/19 12:47:15;;;;;;;7.78;7.00;;;;;;;;;;5092810;28;20890;-84
2023/01/19 12:49:45;;;;;;;7.78;7.00;;;;;;;;;;5092547;28;20370;-81
2023/01/19 12:52:11;;;;;;;6.20;5.70;;;;;;;;;;5084824;28;20887;-81
2023/01/19 12:54:37;;;;;;;7.13;6.23;;;;;;;;;;5084876;28;20759;-81
2023/01/19 12:57:18;;;;;;;6.97;6.30;;;;;;;;;;5092771;28;20403;-82
2023/01/19 12:59:44;;;;;;;6.22;5.63;;;;;;;;;;5092562;28;20878;-82
2023/01/19 13:02:28;;;;;;;6.13;5.53;;;;;;;;;;5092662;28;20425;-82
2023/01/19 13:05:06;;;;;;;5.72;5.22;;;;;;;;;;5083176;28;20379;-81
2023/01/19 13:08:02;;;;;;;8.43;5.63;;;;;;;;;;5087879;28;20409;-82
2023/01/19 13:10:46;;;;;;;5.75;5.15;;;;;;;;;;5092350;28;20363;-82
2023/01/19 13:13:23;;;;;;;4.97;4.57;;;;;;;;;;5081912;28;20853;-81
2023/01/19 13:15:49;;;;;;;5.30;4.80;;;;;;;;;;5087139;28;20378;-81
2023/01/19 13:18:20;;;;;;;5.20;4.80;;;;;;;;;;5092363;28;20412;-81
2023/01/19 13:20:50;;;;;;;6.57;4.65;;;;;;;;;;5092270;28;20477;-81
2023/01/19 13:23:20;;;;;;;5.45;4.95;;;;;;;;;;5092307;28;20377;-81
2023/01/19 13:25:48;;;;;;;4.13;3.72;;;;;;;;;;5092181;28;20385;-81
2023/01/19 13:28:16;;;;;;;4.97;4.50;;;;;;;;;;5079269;28;20411;-81
2023/01/19 13:30:52;;;;;;;5.10;4.20;;;;;;;;;;5086016;28;20378;-81
2023/01/19 13:33:20;;;;;;;4.90;4.22;;;;;;;;;;5081336;28;20393;-81
2023/01/19 13:35:57;;;;;;;4.75;4.35;;;;;;;;;;5092068;28;20370;-83
2023/01/19 13:38:23;;;;;;;6.00;5.15;;;;;;;;;;5091959;28;20375;-83
2023/01/19 13:40:50;;;;;;;5.28;4.78;;;;;;;;;;5092026;28;20512;-84
2023/01/19 13:43:23;;;;;;;5.60;4.72;;;;;;;;;;5065200;28;20381;-83
2023/01/19 13:45:50;;;;;;;5.75;5.25;;;;;;;;;;5065247;28;20399;-84
2023/01/19 13:48:18;;;;;;;5.43;4.93;;;;;;;;;;5073595;28;20405;-83
2023/01/19 13:50:55;;;;;;;5.55;5.05;;;;;;;;;;5090180;28;20479;-82
2023/01/19 13:53:23;;;;;;;5.60;5.00;;;;;;;;;;5091909;28;20406;-82
2023/01/19 13:56:05;;;;;;;5.72;5.10;;;;;;;;;;5090527;28;20370;-82
2023/01/19 13:58:31;;;;;;;5.47;4.63;;;;;;;;;;5091734;28;20924;-82
2023/01/19 14:00:57;;;;;;;6.20;4.70;;;;;;;;;;5091713;28;20843;-82
2023/01/19 14:03:24;;;;;;;4.90;4.50;;;;;;;;;;5089079;28;20396;-83
2023/01/19 14:05:51;;;;;;;7.18;4.55;;;;;;;;;;5079530;28;20399;-83
2023/01/19 14:08:18;;;;;;;4.40;3.90;;;;;;;;;;5091690;28;20393;-83
2023/01/19 14:11:00;;;;;;;4.78;4.10;;;;;;;;;;5091578;28;20417;-83
2023/01/19 14:13:30;;;;;;;4.45;4.05;;;;;;;;;;5091548;28;20370;-83
2023/01/19 14:15:58;;;;;;;7.90;4.22;;;;;;;;;;5091766;28;20775;-83
2023/01/19 14:18:24;;;;;;;4.10;3.70;;;;;;;;;;5091570;28;20874;-83
2023/01/19 14:21:07;;;;;;;4.50;4.10;;;;;;;;;;5091533;28;20408;-83
2023/01/19 14:23:37;;;;;;;4.87;3.67;;;;;;;;;;5091513;28;20495;-84
2023/01/19 14:26:03;;;;;;;4.40;4.00;;;;;;;;;;5091845;28;20431;-84
2023/01/19 14:28:42;;;;;;;4.60;4.15;;;;;;;;;;5091221;28;20898;-84
2023/01/19 14:31:26;;;;;;;5.30;4.10;;;;;;;;;;5091407;28;20459;-84
2023/01/19 14:33:53;;;;;;;4.05;3.72;;;;;;;;;;5091195;28;20794;-84
2023/01/19 14:36:32;;;;;;;5.13;3.88;;;;;;;;;;5091499;28;20469;-84
2023/01/19 14:39:00;;;;;;;4.68;4.28;;;;;;;;;;5077219;28;20734;-83
2023/01/19 14:41:29;;;;;;;4.22;3.75;;;;;;;;;;5091387;28;20486;-83
2023/01/19 14:43:55;;;;;;;4.22;3.83;;;;;;;;;;5091200;28;20370;-84
2023/01/19 14:46:21;;;;;;;4.30;3.50;;;;;;;;;;5062598;28;20390;-84
2023/01/19 14:48:48;;;;;;;4.75;4.00;;;;;;;;;;5075077;28;20829;-84
2023/01/19 14:51:19;;;;;;;4.87;4.47;;;;;;;;;;5091075;28;20402;-83
2023/01/19 14:53:55;;;;;;;4.32;3.97;;;;;;;;;;5084348;28;20384;-83
2023/01/19 14:56:29;;;;;;;4.60;4.20;;;;;;;;;;5090514;28;20655;-84